Pays
Station

 

Conditions  météo  pour  Whidbey Island, Naval Air Station  -  Etats-Unis    Etats-Unis

  
14 °C
    
 
 

METAR pour Whidbey Island, Naval Air Station :

KNUW 232056Z 25012KT 10SM FEW017 BKN033 BKN050 14/07 A3024 RMK AO2 SLP240 T01390067 51006 $

 

Voici le bulletin pour Whidbey Island, Naval Air Station - Etats-Unis.
 
Le bulletin a été fait il y a une heure et 7 minutes, à 20:56 UTC .
Le vent soufflait à la vitesse de 6.2 mètres par seconde de Ouest/Sud-ouest (250°).
 
La température était de 14 °C, avec un point de rosée à 7 °C.
La pression atmosphérique était de 1024 hPa.
L'humidité relative était de 62.7%.
 
Il y avait 1 à 2/8ème de nébulosité à une hauteur de 518 mètres, 5 à 7/8ème de nébulosité à une hauteur de 1006 mètres et 5 à 7/8ème de nébulosité à une hauteur de 1524 mètres.
 
La visibilité globale était de 16.1 kilomètres.
 

 
 
 

Pays :   A   B   C   D   E   F   G   H   I   J   K   L   M   N   O   P   Q   R   S   T   U   V   W   Y   Z

 

Partenaires :  Info Météo avec Met'info
Météo Marine avec MeteoMarine.net
Infos Site  |  Infos Légales  |  Crédits  |  Confidentialité
Contactez-nous  |  Ajouter aux favoris
© 2013-2019 METAR - Tous droits réservés